createdAt,value
2023-07-01T00:01:17.257Z,15.93
2023-07-01T00:03:45.117Z,15.84
2023-07-01T00:06:13.266Z,15.81
2023-07-01T00:08:41.307Z,15.75
2023-07-01T00:11:09.406Z,15.70
2023-07-01T00:13:37.176Z,15.66
2023-07-01T00:16:06.738Z,15.64
2023-07-01T00:18:34.538Z,15.61
2023-07-01T00:21:02.329Z,15.58
2023-07-01T00:23:30.146Z,15.56
2023-07-01T00:25:57.884Z,15.50
2023-07-01T00:28:25.730Z,15.47
2023-07-01T00:30:53.724Z,15.44
2023-07-01T00:33:24.222Z,15.42
2023-07-01T00:35:52.021Z,15.41
2023-07-01T00:38:19.964Z,15.39
2023-07-01T00:40:48.057Z,15.40
2023-07-01T00:43:16.310Z,15.41
2023-07-01T00:45:48.305Z,15.45
2023-07-01T00:48:26.581Z,15.53
2023-07-01T00:50:56.178Z,15.60
2023-07-01T00:53:24.551Z,15.66
2023-07-01T00:55:53.654Z,15.72
2023-07-01T00:58:22.100Z,15.78
2023-07-01T01:00:49.982Z,15.84
2023-07-01T01:03:28.276Z,15.90
2023-07-01T01:06:03.521Z,15.93
2023-07-01T01:08:41.389Z,15.98
2023-07-01T01:11:11.130Z,16.01
2023-07-01T01:13:39.990Z,16.03
2023-07-01T01:16:07.840Z,16.03
2023-07-01T01:18:36.528Z,16.06
2023-07-01T01:21:08.033Z,16.09
2023-07-01T01:23:44.464Z,16.12
2023-07-01T01:26:19.241Z,16.18
2023-07-01T01:28:48.713Z,16.20
2023-07-01T01:31:16.578Z,16.23
2023-07-01T01:33:44.349Z,16.28
2023-07-01T01:36:16.912Z,16.31
2023-07-01T01:38:45.517Z,16.36
2023-07-01T01:41:18.182Z,16.39
2023-07-01T01:43:54.324Z,16.41
2023-07-01T01:46:24.297Z,16.44
2023-07-01T01:48:53.408Z,16.46
2023-07-01T01:51:23.789Z,16.49
2023-07-01T01:53:54.271Z,16.53
2023-07-01T01:56:22.993Z,16.57
2023-07-01T01:58:52.201Z,16.60
2023-07-01T02:01:20.069Z,16.61
2023-07-01T02:03:48.020Z,16.62
2023-07-01T02:06:16.054Z,16.65
2023-07-01T02:08:43.818Z,16.65
2023-07-01T02:11:11.646Z,16.65
2023-07-01T02:13:39.439Z,16.65
2023-07-01T02:16:08.792Z,16.65
2023-07-01T02:18:36.553Z,16.65
2023-07-01T02:21:05.323Z,16.66
2023-07-01T02:23:33.114Z,16.65
2023-07-01T02:26:00.994Z,16.64
2023-07-01T02:28:28.739Z,16.65
2023-07-01T02:30:56.519Z,16.65
2023-07-01T02:33:25.892Z,16.67
2023-07-01T02:35:53.808Z,16.66
2023-07-01T02:38:21.601Z,16.66
2023-07-01T02:40:49.725Z,16.68
2023-07-01T02:43:17.532Z,16.66
2023-07-01T02:45:45.423Z,16.67
2023-07-01T02:48:13.220Z,16.69
2023-07-01T02:50:42.818Z,16.69
2023-07-01T02:53:10.761Z,16.71
2023-07-01T02:55:39.021Z,16.71
2023-07-01T02:58:06.783Z,16.72
2023-07-01T03:00:34.735Z,16.76
2023-07-01T03:03:07.534Z,16.76
2023-07-01T03:05:36.334Z,16.75
2023-07-01T03:08:06.570Z,16.74
2023-07-01T03:10:35.981Z,16.74
2023-07-01T03:13:03.990Z,16.75
2023-07-01T03:15:32.043Z,16.76
2023-07-01T03:17:59.849Z,16.76
2023-07-01T03:20:27.945Z,16.78
2023-07-01T03:22:57.715Z,16.79
2023-07-01T03:25:27.426Z,16.82
2023-07-01T03:27:55.587Z,16.84
2023-07-01T03:30:32.375Z,16.87
2023-07-01T03:33:00.957Z,16.89
2023-07-01T03:35:28.828Z,16.93
2023-07-01T03:37:56.608Z,16.96
2023-07-01T03:40:24.401Z,17.01
2023-07-01T03:42:53.617Z,17.04
2023-07-01T03:45:21.462Z,17.09
2023-07-01T03:47:49.352Z,17.14
2023-07-01T03:50:17.898Z,17.19
2023-07-01T03:52:45.802Z,17.23
2023-07-01T03:55:15.226Z,17.27
2023-07-01T03:57:43.441Z,17.31
2023-07-01T04:00:19.379Z,17.36
2023-07-01T04:02:48.699Z,17.39
2023-07-01T04:05:17.770Z,17.45
2023-07-01T04:07:48.620Z,17.47
2023-07-01T04:10:16.702Z,17.51
2023-07-01T04:12:44.753Z,17.55
2023-07-01T04:15:14.091Z,17.56
2023-07-01T04:17:43.703Z,17.59
2023-07-01T04:20:14.608Z,17.63
2023-07-01T04:22:43.450Z,17.68
2023-07-01T04:25:11.775Z,17.71
2023-07-01T04:27:39.832Z,17.75
2023-07-01T04:30:09.661Z,17.78
2023-07-01T04:32:38.996Z,17.84
2023-07-01T04:35:08.294Z,17.91
2023-07-01T04:37:36.243Z,17.97
2023-07-01T04:40:05.462Z,18.06
2023-07-01T04:42:34.225Z,18.14
2023-07-01T04:45:02.258Z,18.25
2023-07-01T04:47:31.834Z,18.35
2023-07-01T04:50:00.962Z,18.41
2023-07-01T04:52:28.784Z,18.46
2023-07-01T04:54:56.504Z,18.55
2023-07-01T04:57:26.398Z,18.66
2023-07-01T04:59:54.170Z,18.78
2023-07-01T05:02:22.038Z,18.93
2023-07-01T05:04:49.899Z,19.05
2023-07-01T05:07:19.197Z,19.14
2023-07-01T05:09:47.017Z,19.15
2023-07-01T05:12:15.524Z,19.15
2023-07-01T05:14:43.268Z,19.19
2023-07-01T05:17:11.017Z,19.21
2023-07-01T05:19:38.801Z,19.28
2023-07-01T05:22:07.658Z,19.37
2023-07-01T05:24:36.813Z,19.45
2023-07-01T05:27:06.085Z,19.52
2023-07-01T05:29:33.924Z,19.62
2023-07-01T05:32:01.793Z,19.72
2023-07-01T05:34:29.579Z,19.73
2023-07-01T05:36:57.480Z,19.71
2023-07-01T05:39:26.055Z,19.70
2023-07-01T05:41:55.137Z,19.74
2023-07-01T05:44:25.511Z,19.84
2023-07-01T05:46:53.653Z,19.91
2023-07-01T05:49:21.396Z,19.97
2023-07-01T05:51:49.230Z,19.99
2023-07-01T05:54:17.210Z,19.99
2023-07-01T05:56:45.122Z,19.99
2023-07-01T05:59:14.765Z,19.99
2023-07-01T06:01:42.729Z,20.01
2023-07-01T06:04:10.725Z,20.03
2023-07-01T06:06:39.953Z,20.04
2023-07-01T06:09:09.361Z,20.09
2023-07-01T06:11:37.212Z,20.21
2023-07-01T06:14:05.106Z,20.40
2023-07-01T06:16:34.348Z,20.65
2023-07-01T06:19:03.463Z,20.81
2023-07-01T06:21:31.194Z,20.95
2023-07-01T06:23:59.131Z,21.08
2023-07-01T06:26:27.114Z,21.04
2023-07-01T06:28:54.848Z,21.01
2023-07-01T06:31:22.922Z,21.02
2023-07-01T06:33:52.111Z,21.10
2023-07-01T06:36:19.882Z,21.18
2023-07-01T06:38:50.092Z,21.30
2023-07-01T06:41:17.921Z,21.37
2023-07-01T06:43:45.959Z,21.33
2023-07-01T06:46:13.771Z,21.38
2023-07-01T06:48:44.177Z,21.50
2023-07-01T06:51:14.181Z,21.71
2023-07-01T06:53:42.206Z,21.86
2023-07-01T06:56:11.133Z,22.07
2023-07-01T06:58:41.133Z,22.20
2023-07-01T07:01:09.132Z,22.34
2023-07-01T07:03:40.670Z,22.67
2023-07-01T07:06:08.976Z,22.88
2023-07-01T07:08:39.010Z,23.03
2023-07-01T07:11:06.833Z,23.08
2023-07-01T07:13:34.663Z,23.14
2023-07-01T07:16:02.667Z,23.31
2023-07-01T07:18:31.298Z,23.41
2023-07-01T07:20:59.201Z,23.47
2023-07-01T07:23:27.062Z,23.48
2023-07-01T07:25:58.826Z,23.39
2023-07-01T07:28:26.562Z,23.22
2023-07-01T07:30:54.317Z,23.07
2023-07-01T07:33:22.189Z,22.92
2023-07-01T07:35:50.147Z,22.81
2023-07-01T07:38:18.203Z,22.61
2023-07-01T07:40:46.344Z,22.59
2023-07-01T07:43:15.780Z,22.61
2023-07-01T07:45:43.662Z,22.69
2023-07-01T07:48:11.545Z,22.68
2023-07-01T07:50:39.442Z,22.81
2023-07-01T07:53:07.500Z,22.95
2023-07-01T07:55:35.876Z,23.03
2023-07-01T07:58:04.564Z,23.15
2023-07-01T08:00:34.195Z,23.25
2023-07-01T08:03:02.198Z,23.17
2023-07-01T08:05:30.096Z,23.15
2023-07-01T08:07:58.075Z,23.16
2023-07-01T08:10:25.996Z,23.06
2023-07-01T08:12:53.809Z,23.06
2023-07-01T08:15:23.032Z,23.08
2023-07-01T08:17:52.143Z,23.27
2023-07-01T08:20:20.098Z,23.47
2023-07-01T08:22:47.977Z,23.56
2023-07-01T08:25:15.728Z,23.52
2023-07-01T08:27:43.556Z,23.39
2023-07-01T08:30:12.758Z,23.24
2023-07-01T08:32:41.371Z,23.04
2023-07-01T08:35:11.109Z,22.82
2023-07-01T08:37:38.976Z,22.69
2023-07-01T08:40:08.204Z,22.50
2023-07-01T08:42:44.051Z,22.28
2023-07-01T08:45:12.874Z,22.21
2023-07-01T08:47:42.513Z,22.08
2023-07-01T08:50:18.160Z,21.89
2023-07-01T08:52:48.960Z,21.77
2023-07-01T08:55:16.990Z,21.58
2023-07-01T08:57:44.761Z,21.34
2023-07-01T09:00:14.427Z,21.29
2023-07-01T09:02:43.094Z,21.29
2023-07-01T09:05:12.451Z,21.36
2023-07-01T09:07:42.615Z,21.35
2023-07-01T09:10:13.354Z,21.44
2023-07-01T09:12:41.153Z,21.54
2023-07-01T09:15:10.116Z,21.75
2023-07-01T09:17:39.545Z,21.95
2023-07-01T09:20:09.490Z,22.15
2023-07-01T09:22:40.243Z,22.14
2023-07-01T09:25:08.924Z,22.16
2023-07-01T09:27:46.094Z,22.14
2023-07-01T09:30:26.783Z,22.31
2023-07-01T09:33:11.199Z,22.62
2023-07-01T09:35:43.702Z,22.74
2023-07-01T09:38:13.024Z,22.93
2023-07-01T09:40:41.044Z,22.98
2023-07-01T09:43:09.245Z,23.10
2023-07-01T09:45:37.154Z,23.22
2023-07-01T09:48:12.536Z,23.38
2023-07-01T09:50:42.221Z,23.59
2023-07-01T09:53:21.841Z,23.39
2023-07-01T09:55:50.078Z,23.58
2023-07-01T09:58:18.708Z,23.54
2023-07-01T10:00:46.865Z,23.65
2023-07-01T10:03:14.708Z,23.77
2023-07-01T10:05:46.307Z,23.84
2023-07-01T10:08:14.347Z,23.90
2023-07-01T10:10:44.409Z,23.91
2023-07-01T10:13:14.285Z,23.86
2023-07-01T10:15:43.288Z,23.88
2023-07-01T10:18:22.997Z,23.90
2023-07-01T10:20:52.007Z,23.93
2023-07-01T10:23:20.551Z,23.92
2023-07-01T10:25:50.028Z,24.04
2023-07-01T10:28:17.984Z,24.08
2023-07-01T10:31:11.928Z,24.03
2023-07-01T10:33:59.198Z,24.08
2023-07-01T10:36:27.169Z,23.97
2023-07-01T10:39:34.243Z,24.19
2023-07-01T10:42:03.591Z,24.36
2023-07-01T10:44:31.792Z,24.40
2023-07-01T10:47:20.842Z,24.52
2023-07-01T10:50:08.619Z,24.54
2023-07-01T10:53:12.177Z,24.62
2023-07-01T10:55:45.660Z,24.92
2023-07-01T10:58:22.461Z,25.01
2023-07-01T11:00:50.988Z,24.80
2023-07-01T11:03:56.686Z,24.81
2023-07-01T11:06:24.690Z,24.82
2023-07-01T11:08:53.949Z,25.03
2023-07-01T11:11:23.622Z,25.12
2023-07-01T11:14:04.912Z,24.99
2023-07-01T11:16:34.311Z,24.76
2023-07-01T11:19:04.455Z,24.49
2023-07-01T11:21:33.190Z,24.28
2023-07-01T11:24:03.479Z,23.92
2023-07-01T11:26:33.046Z,23.72
2023-07-01T11:29:02.751Z,23.68
2023-07-01T11:31:34.721Z,23.49
2023-07-01T11:34:04.038Z,23.48
2023-07-01T11:36:37.195Z,23.47
2023-07-01T11:39:07.106Z,23.36
2023-07-01T11:41:36.150Z,23.16
2023-07-01T11:44:07.417Z,23.36
2023-07-01T11:46:37.116Z,23.35
2023-07-01T11:49:15.989Z,22.99
2023-07-01T11:51:45.509Z,23.21
2023-07-01T11:54:14.911Z,23.18
2023-07-01T11:56:43.927Z,23.37
2023-07-01T11:59:29.210Z,23.12
2023-07-01T12:01:57.195Z,22.69
2023-07-01T12:04:25.609Z,22.58
2023-07-01T12:07:07.583Z,22.56
2023-07-01T12:09:35.709Z,22.26
2023-07-01T12:12:03.757Z,21.82
2023-07-01T12:14:32.964Z,21.65
2023-07-01T12:17:00.902Z,21.55
2023-07-01T12:19:28.845Z,21.48
2023-07-01T12:21:57.808Z,21.47
2023-07-01T12:24:27.202Z,21.61
2023-07-01T12:26:56.659Z,21.62
2023-07-01T12:29:26.589Z,21.58
2023-07-01T12:31:56.094Z,21.46
2023-07-01T12:34:24.253Z,21.65
2023-07-01T12:36:52.473Z,21.64
2023-07-01T12:39:20.731Z,21.66
2023-07-01T12:41:49.389Z,21.64
2023-07-01T12:44:17.220Z,21.77
2023-07-01T12:46:45.745Z,22.08
2023-07-01T12:49:15.867Z,22.15
2023-07-01T12:51:44.404Z,22.36
2023-07-01T12:54:17.723Z,22.97
2023-07-01T12:56:47.380Z,23.43
2023-07-01T12:59:15.375Z,23.51
2023-07-01T13:01:45.710Z,23.37
2023-07-01T13:04:18.125Z,23.40
2023-07-01T13:06:46.404Z,23.35
2023-07-01T13:09:14.604Z,23.00
2023-07-01T13:11:42.646Z,22.72
2023-07-01T13:14:12.651Z,22.40
2023-07-01T13:16:42.413Z,22.05
2023-07-01T13:19:12.447Z,21.93
2023-07-01T13:21:43.506Z,22.05
2023-07-01T13:24:14.902Z,21.90
2023-07-01T13:26:44.140Z,21.92
2023-07-01T13:29:14.430Z,21.79
2023-07-01T13:31:43.162Z,21.69
2023-07-01T13:34:11.419Z,21.70
2023-07-01T13:36:44.065Z,21.66
2023-07-01T13:39:14.993Z,21.67
2023-07-01T13:41:42.850Z,21.55
2023-07-01T13:44:20.695Z,21.47
2023-07-01T13:46:49.293Z,21.34
2023-07-01T13:49:23.760Z,21.31
2023-07-01T13:51:53.962Z,21.09
2023-07-01T13:54:23.965Z,21.03
2023-07-01T13:56:52.069Z,20.93
2023-07-01T13:59:21.924Z,20.79
2023-07-01T14:02:00.260Z,20.74
2023-07-01T14:04:31.822Z,20.74
2023-07-01T14:07:01.854Z,20.74
2023-07-01T14:09:31.664Z,20.74
2023-07-01T14:11:59.996Z,20.76
2023-07-01T14:14:28.807Z,20.72
2023-07-01T14:16:57.425Z,20.55
2023-07-01T14:19:25.312Z,20.49
2023-07-01T14:21:56.028Z,20.32
2023-07-01T14:24:30.520Z,20.13
2023-07-01T14:27:03.548Z,20.09
2023-07-01T14:29:31.610Z,19.95
2023-07-01T14:31:59.467Z,19.86
2023-07-01T14:34:33.158Z,19.78
2023-07-01T14:37:03.501Z,19.77
2023-07-01T14:39:45.039Z,19.79
2023-07-01T14:42:14.347Z,19.70
2023-07-01T14:44:42.318Z,19.58
2023-07-01T14:47:10.530Z,19.56
2023-07-01T14:49:39.911Z,19.61
2023-07-01T14:52:09.012Z,19.62
2023-07-01T14:54:37.022Z,19.69
2023-07-01T14:57:07.270Z,19.78
2023-07-01T14:59:35.142Z,19.70
2023-07-01T15:02:02.980Z,19.78
2023-07-01T15:04:30.715Z,19.83
2023-07-01T15:06:58.626Z,19.81
2023-07-01T15:09:26.464Z,19.81
2023-07-01T15:11:54.188Z,19.86
2023-07-01T15:14:23.301Z,19.96
2023-07-01T15:16:51.054Z,20.26
2023-07-01T15:19:18.978Z,20.65
2023-07-01T15:21:46.685Z,20.71
2023-07-01T15:24:16.338Z,20.89
2023-07-01T15:26:44.119Z,20.88
2023-07-01T15:29:11.819Z,20.82
2023-07-01T15:31:41.251Z,20.77
2023-07-01T15:34:09.095Z,20.70
2023-07-01T15:36:37.341Z,20.67
2023-07-01T15:39:05.462Z,20.67
2023-07-01T15:41:46.313Z,20.75
2023-07-01T15:44:16.195Z,20.81
2023-07-01T15:46:45.424Z,21.04
2023-07-01T15:49:13.293Z,21.26
2023-07-01T15:51:41.387Z,21.32
2023-07-01T15:54:11.421Z,21.42
2023-07-01T15:56:39.459Z,21.96
2023-07-01T15:59:07.228Z,22.15
2023-07-01T16:01:36.960Z,22.00
2023-07-01T16:04:07.300Z,21.90
2023-07-01T16:06:35.532Z,21.96
2023-07-01T16:09:25.236Z,22.37
2023-07-01T16:11:52.988Z,22.45
2023-07-01T16:14:20.721Z,22.27
2023-07-01T16:16:49.977Z,22.18
2023-07-01T16:19:19.721Z,22.34
2023-07-01T16:21:48.085Z,22.34
2023-07-01T16:24:49.302Z,22.22
2023-07-01T16:27:18.753Z,22.16
2023-07-01T16:29:46.496Z,22.24
2023-07-01T16:32:20.184Z,22.29
2023-07-01T16:34:49.914Z,22.22
2023-07-01T16:37:17.820Z,22.14
2023-07-01T16:39:52.427Z,22.15
2023-07-01T16:42:21.715Z,22.16
2023-07-01T16:44:52.897Z,22.06
2023-07-01T16:47:21.470Z,21.90
2023-07-01T16:49:52.525Z,21.74
2023-07-01T16:52:27.674Z,21.45
2023-07-01T16:54:55.915Z,21.13
2023-07-01T16:57:24.514Z,21.10
2023-07-01T16:59:52.655Z,20.98
2023-07-01T17:03:12.508Z,20.86
2023-07-01T17:05:41.782Z,20.58
2023-07-01T17:08:21.518Z,20.49
2023-07-01T17:10:50.461Z,20.54
2023-07-01T17:13:40.273Z,20.44
2023-07-01T17:16:09.155Z,20.44
2023-07-01T17:18:37.718Z,20.47
2023-07-01T17:21:06.907Z,20.45
2023-07-01T17:23:34.619Z,20.38
2023-07-01T17:26:02.337Z,20.38
2023-07-01T17:28:31.017Z,20.36
2023-07-01T17:30:59.112Z,20.30
2023-07-01T17:33:26.936Z,20.27
2023-07-01T17:35:54.691Z,20.10
2023-07-01T17:38:23.788Z,19.99
2023-07-01T17:40:51.617Z,20.07
2023-07-01T17:43:19.324Z,20.20
2023-07-01T17:45:47.264Z,20.22
2023-07-01T17:48:15.231Z,20.15
2023-07-01T17:50:42.947Z,20.01
2023-07-01T17:53:11.450Z,19.86
2023-07-01T17:55:40.718Z,19.82
2023-07-01T17:58:08.459Z,19.71
2023-07-01T18:00:36.256Z,19.66
2023-07-01T18:03:04.362Z,19.64
2023-07-01T18:05:33.378Z,19.61
2023-07-01T18:08:01.290Z,19.60
2023-07-01T18:10:29.495Z,19.56
2023-07-01T18:12:58.707Z,19.48
2023-07-01T18:15:26.501Z,19.39
2023-07-01T18:17:54.381Z,19.28
2023-07-01T18:20:22.216Z,19.23
2023-07-01T18:22:50.013Z,19.15
2023-07-01T18:25:17.793Z,19.08
2023-07-01T18:27:45.520Z,18.97
2023-07-01T18:30:15.633Z,18.83
2023-07-01T18:32:45.423Z,18.75
2023-07-01T18:35:15.554Z,18.72
2023-07-01T18:37:46.415Z,18.79
2023-07-01T18:40:15.956Z,18.83
2023-07-01T18:42:44.254Z,18.80
2023-07-01T18:45:14.101Z,18.85
2023-07-01T18:47:43.275Z,18.89
2023-07-01T18:50:12.305Z,18.92
2023-07-01T18:52:40.071Z,18.89
2023-07-01T18:55:08.507Z,18.92
2023-07-01T18:57:36.223Z,18.88
2023-07-01T19:00:04.809Z,18.82
2023-07-01T19:02:34.422Z,18.74
2023-07-01T19:05:04.313Z,18.61
2023-07-01T19:07:32.078Z,18.49
2023-07-01T19:09:59.836Z,18.35
2023-07-01T19:12:28.880Z,18.20
2023-07-01T19:14:56.679Z,18.07
2023-07-01T19:17:24.628Z,17.97
2023-07-01T19:19:54.549Z,17.84
2023-07-01T19:22:24.601Z,17.72
2023-07-01T19:24:52.916Z,17.58
2023-07-01T19:27:22.057Z,17.44
2023-07-01T19:30:03.158Z,17.30
2023-07-01T19:32:39.314Z,17.17
2023-07-01T19:35:09.709Z,17.09
2023-07-01T19:37:37.519Z,17.01
2023-07-01T19:40:05.968Z,16.95
2023-07-01T19:42:34.027Z,16.91
2023-07-01T19:45:01.891Z,16.87
2023-07-01T19:47:29.741Z,16.87
2023-07-01T19:49:57.497Z,16.84
2023-07-01T19:52:27.033Z,16.85
2023-07-01T19:54:54.795Z,16.86
2023-07-01T19:57:22.565Z,16.89
2023-07-01T19:59:50.293Z,16.90
2023-07-01T20:02:18.168Z,16.93
2023-07-01T20:04:46.038Z,16.93
2023-07-01T20:07:14.160Z,16.93
2023-07-01T20:09:44.848Z,16.94
2023-07-01T20:12:13.804Z,16.95
2023-07-01T20:14:41.796Z,16.95
2023-07-01T20:17:10.202Z,16.94
2023-07-01T20:19:37.968Z,16.95
2023-07-01T20:22:05.891Z,16.94
2023-07-01T20:24:33.692Z,16.94
2023-07-01T20:27:02.868Z,16.93
2023-07-01T20:29:30.852Z,16.90
2023-07-01T20:32:00.641Z,16.89
2023-07-01T20:34:28.671Z,16.87
2023-07-01T20:36:56.508Z,16.86
2023-07-01T20:39:24.238Z,16.82
2023-07-01T20:42:06.979Z,16.80
2023-07-01T20:44:38.365Z,16.78
2023-07-01T20:47:07.716Z,16.75
2023-07-01T20:49:36.354Z,16.74
2023-07-01T20:52:04.798Z,16.72
2023-07-01T20:54:32.899Z,16.70
2023-07-01T20:57:00.998Z,16.69
2023-07-01T20:59:31.728Z,16.66
2023-07-01T21:02:01.958Z,16.63
2023-07-01T21:04:30.780Z,16.60
2023-07-01T21:06:58.844Z,16.56
2023-07-01T21:09:27.238Z,16.55
2023-07-01T21:11:55.093Z,16.53
2023-07-01T21:14:23.474Z,16.51
2023-07-01T21:16:52.480Z,16.49
2023-07-01T21:19:21.882Z,16.49
2023-07-01T21:21:51.836Z,16.48
2023-07-01T21:24:20.028Z,16.48
2023-07-01T21:26:48.071Z,16.48
2023-07-01T21:29:17.598Z,16.46
2023-07-01T21:31:49.110Z,16.44
2023-07-01T21:34:18.990Z,16.45
2023-07-01T21:36:50.714Z,16.44
2023-07-01T21:39:20.416Z,16.42
2023-07-01T21:41:48.537Z,16.39
2023-07-01T21:44:18.148Z,16.34
2023-07-01T21:46:46.346Z,16.33
2023-07-01T21:49:14.360Z,16.35
2023-07-01T21:51:44.929Z,16.36
2023-07-01T21:54:15.895Z,16.37
2023-07-01T21:56:44.334Z,16.37
2023-07-01T21:59:12.204Z,16.35
2023-07-01T22:01:43.285Z,16.33
2023-07-01T22:04:14.556Z,16.31
2023-07-01T22:06:44.059Z,16.30
2023-07-01T22:09:12.333Z,16.31
2023-07-01T22:11:41.476Z,16.36
2023-07-01T22:14:09.871Z,16.40
2023-07-01T22:16:38.005Z,16.42
2023-07-01T22:19:06.231Z,16.45
2023-07-01T22:21:35.488Z,16.48
2023-07-01T22:24:05.422Z,16.51
2023-07-01T22:26:33.697Z,16.53
2023-07-01T22:29:03.714Z,16.58
2023-07-01T22:31:31.912Z,16.60
2023-07-01T22:33:59.942Z,16.64
2023-07-01T22:36:27.761Z,16.68
2023-07-01T22:38:56.523Z,16.67
2023-07-01T22:41:24.966Z,16.67
2023-07-01T22:43:53.153Z,16.69
2023-07-01T22:46:22.408Z,16.72
2023-07-01T22:48:50.220Z,16.75
2023-07-01T22:51:18.650Z,16.79
2023-07-01T22:53:47.661Z,16.80
2023-07-01T22:56:15.486Z,16.83
2023-07-01T22:58:43.556Z,16.84
2023-07-01T23:01:11.299Z,16.85
2023-07-01T23:03:40.952Z,16.86
2023-07-01T23:06:09.189Z,16.86
2023-07-01T23:08:39.355Z,16.85
2023-07-01T23:11:07.220Z,16.86
2023-07-01T23:13:35.498Z,16.84
2023-07-01T23:16:03.316Z,16.82
2023-07-01T23:18:31.116Z,16.79
2023-07-01T23:21:00.287Z,16.76
2023-07-01T23:23:28.099Z,16.72
2023-07-01T23:25:55.850Z,16.67
2023-07-01T23:28:23.666Z,16.64
2023-07-01T23:30:53.291Z,16.61
2023-07-01T23:33:21.887Z,16.59
2023-07-01T23:35:49.854Z,16.57
2023-07-01T23:38:18.951Z,16.56
2023-07-01T23:40:47.109Z,16.54
2023-07-01T23:43:15.513Z,16.52
2023-07-01T23:45:43.289Z,16.49
2023-07-01T23:48:11.080Z,16.46
2023-07-01T23:50:38.901Z,16.44
2023-07-01T23:53:06.911Z,16.40
2023-07-01T23:55:36.043Z,16.36
2023-07-01T23:58:03.886Z,16.29
